sensor_id;sensor_type;location;lat;lon;timestamp;pressure;altitude;pressure_sealevel;temperature;humidity
10840;BME280;5473;42.706;23.328;2023-02-26T00:02:28;37709.84;;;-142.93;89.84
10840;BME280;5473;42.706;23.328;2023-02-26T00:04:54;37729.75;;;-142.93;89.92
10840;BME280;5473;42.706;23.328;2023-02-26T00:07:21;37743.69;;;-142.93;89.06
10840;BME280;5473;42.706;23.328;2023-02-26T00:09:48;37753.63;;;-142.93;89.67
10840;BME280;5473;42.706;23.328;2023-02-26T00:12:15;37747.66;;;-142.93;89.23
10840;BME280;5473;42.706;23.328;2023-02-26T00:14:44;37741.69;;;-142.93;87.22
10840;BME280;5473;42.706;23.328;2023-02-26T00:17:31;37743.69;;;-142.93;86.37
10840;BME280;5473;42.706;23.328;2023-02-26T00:20:00;37735.72;;;-142.93;87.99
10840;BME280;5473;42.706;23.328;2023-02-26T00:22:28;37719.81;;;-142.93;89.82
10840;BME280;5473;42.706;23.328;2023-02-26T00:24:55;37763.59;;;-142.93;89.22
10840;BME280;5473;42.706;23.328;2023-02-26T00:27:22;37745.69;;;-142.93;85.58
10840;BME280;5473;42.706;23.328;2023-02-26T00:29:51;37763.59;;;-142.93;84.66
10840;BME280;5473;42.706;23.328;2023-02-26T00:32:18;37823.28;;;-142.93;81.18
10840;BME280;5473;42.706;23.328;2023-02-26T00:34:46;37755.63;;;-142.93;81.23
10840;BME280;5473;42.706;23.328;2023-02-26T00:37:22;37749.66;;;-142.93;85.82
10840;BME280;5473;42.706;23.328;2023-02-26T00:40:00;37791.44;;;-142.93;87.56
10840;BME280;5473;42.706;23.328;2023-02-26T00:42:31;37783.50;;;-142.93;88.66
10840;BME280;5473;42.706;23.328;2023-02-26T00:44:59;37757.63;;;-142.93;89.38
10840;BME280;5473;42.706;23.328;2023-02-26T00:47:30;37745.69;;;-142.93;91.04
10840;BME280;5473;42.706;23.328;2023-02-26T00:50:09;37775.53;;;-142.93;91.87
10840;BME280;5473;42.706;23.328;2023-02-26T00:52:43;37783.50;;;-142.93;92.57
10840;BME280;5473;42.706;23.328;2023-02-26T00:55:13;37747.66;;;-142.93;93.12
10840;BME280;5473;42.706;23.328;2023-02-26T00:57:40;37759.59;;;-142.93;93.82
10840;BME280;5473;42.706;23.328;2023-02-26T01:00:09;37781.50;;;-142.93;95.34
10840;BME280;5473;42.706;23.328;2023-02-26T01:02:37;37765.56;;;-142.93;96.18
10840;BME280;5473;42.706;23.328;2023-02-26T01:05:06;37753.63;;;-142.93;98.22
10840;BME280;5473;42.706;23.328;2023-02-26T01:07:39;37737.72;;;-142.93;98.40
10840;BME280;5473;42.706;23.328;2023-02-26T01:10:09;37767.56;;;-142.93;98.13
10840;BME280;5473;42.706;23.328;2023-02-26T01:12:37;37775.53;;;-142.93;97.74
10840;BME280;5473;42.706;23.328;2023-02-26T01:15:05;37777.50;;;-142.93;96.92
10840;BME280;5473;42.706;23.328;2023-02-26T01:17:40;37799.41;;;-142.93;87.70
10840;BME280;5473;42.706;23.328;2023-02-26T01:20:15;37821.28;;;-142.93;83.52
10840;BME280;5473;42.706;23.328;2023-02-26T01:22:46;37813.34;;;-142.93;86.79
10840;BME280;5473;42.706;23.328;2023-02-26T01:25:20;37817.31;;;-142.93;90.97
10840;BME280;5473;42.706;23.328;2023-02-26T01:27:47;37807.38;;;-142.93;86.92
10840;BME280;5473;42.706;23.328;2023-02-26T01:30:15;37847.16;;;-142.93;81.26
10840;BME280;5473;42.706;23.328;2023-02-26T01:32:48;37841.19;;;-142.93;80.54
10840;BME280;5473;42.706;23.328;2023-02-26T01:35:28;37835.22;;;-142.93;80.54
10840;BME280;5473;42.706;23.328;2023-02-26T01:38:02;37847.16;;;-142.93;81.64
10840;BME280;5473;42.706;23.328;2023-02-26T01:40:37;37851.16;;;-142.93;81.90
10840;BME280;5473;42.706;23.328;2023-02-26T01:43:17;37841.19;;;-142.93;82.66
10840;BME280;5473;42.706;23.328;2023-02-26T01:45:54;37831.25;;;-142.93;81.82
10840;BME280;5473;42.706;23.328;2023-02-26T01:48:33;37825.28;;;-142.93;81.31
10840;BME280;5473;42.706;23.328;2023-02-26T01:51:01;37823.28;;;-142.93;80.40
10840;BME280;5473;42.706;23.328;2023-02-26T01:53:28;37857.13;;;-142.93;81.96
10840;BME280;5473;42.706;23.328;2023-02-26T01:55:56;37829.25;;;-142.93;80.43
10840;BME280;5473;42.706;23.328;2023-02-26T01:58:25;37815.31;;;-142.93;80.66
10840;BME280;5473;42.706;23.328;2023-02-26T02:00:53;37841.19;;;-142.93;80.39
10840;BME280;5473;42.706;23.328;2023-02-26T02:03:21;37821.28;;;-142.93;80.85
10840;BME280;5473;42.706;23.328;2023-02-26T02:05:55;37825.28;;;-142.93;78.56
10840;BME280;5473;42.706;23.328;2023-02-26T02:08:23;37813.34;;;-142.93;79.97
10840;BME280;5473;42.706;23.328;2023-02-26T02:10:51;37839.22;;;-142.93;80.98
10840;BME280;5473;42.706;23.328;2023-02-26T02:13:26;37833.25;;;-142.93;81.14
10840;BME280;5473;42.706;23.328;2023-02-26T02:16:00;37845.19;;;-142.93;81.77
10840;BME280;5473;42.706;23.328;2023-02-26T02:18:35;37813.34;;;-142.93;79.08
10840;BME280;5473;42.706;23.328;2023-02-26T02:24:10;37871.03;;;-142.93;78.10
10840;BME280;5473;42.706;23.328;2023-02-26T02:26:52;37839.22;;;-142.93;77.82
10840;BME280;5473;42.706;23.328;2023-02-26T02:29:52;37883.00;;;-142.93;78.98
10840;BME280;5473;42.706;23.328;2023-02-26T02:32:27;37865.06;;;-142.93;79.61
10840;BME280;5473;42.706;23.328;2023-02-26T02:35:02;37855.13;;;-142.93;79.40
10840;BME280;5473;42.706;23.328;2023-02-26T02:37:36;37859.09;;;-142.93;79.21
10840;BME280;5473;42.706;23.328;2023-02-26T02:40:07;37894.94;;;-142.93;77.28
10840;BME280;5473;42.706;23.328;2023-02-26T02:42:40;37853.13;;;-142.93;77.68
10840;BME280;5473;42.706;23.328;2023-02-26T02:45:14;37869.06;;;-142.93;80.12
10840;BME280;5473;42.706;23.328;2023-02-26T02:47:49;37839.22;;;-142.93;80.07
10840;BME280;5473;42.706;23.328;2023-02-26T02:50:26;37851.16;;;-142.93;80.87
10840;BME280;5473;42.706;23.328;2023-02-26T02:52:57;37863.09;;;-142.93;80.71
10840;BME280;5473;42.706;23.328;2023-02-26T02:55:29;37988.47;;;-142.93;77.32
10840;BME280;5473;42.706;23.328;2023-02-26T02:58:03;37865.06;;;-142.93;78.36
10840;BME280;5473;42.706;23.328;2023-02-26T03:00:32;37879.00;;;-142.93;79.78
10840;BME280;5473;42.706;23.328;2023-02-26T03:03:05;37875.03;;;-142.93;77.17
10840;BME280;5473;42.706;23.328;2023-02-26T03:05:34;37896.91;;;-142.93;76.23
10840;BME280;5473;42.706;23.328;2023-02-26T03:08:05;37886.97;;;-142.93;75.96
10840;BME280;5473;42.706;23.328;2023-02-26T03:10:32;37879.00;;;-142.93;76.76
10840;BME280;5473;42.706;23.328;2023-02-26T03:12:59;37847.16;;;-142.93;78.95
10840;BME280;5473;42.706;23.328;2023-02-26T03:15:32;37892.94;;;-142.93;80.12
10840;BME280;5473;42.706;23.328;2023-02-26T03:18:09;37884.97;;;-142.93;80.96
10840;BME280;5473;42.706;23.328;2023-02-26T03:20:44;37871.03;;;-142.93;81.83
10840;BME280;5473;42.706;23.328;2023-02-26T03:23:18;37865.06;;;-142.93;81.94
10840;BME280;5473;42.706;23.328;2023-02-26T03:25:49;37881.00;;;-142.93;83.16
10840;BME280;5473;42.706;23.328;2023-02-26T03:28:21;37869.06;;;-142.93;85.23
10840;BME280;5473;42.706;23.328;2023-02-26T03:30:56;37890.94;;;-142.93;85.48
10840;BME280;5473;42.706;23.328;2023-02-26T03:33:30;37894.94;;;-142.93;85.84
10840;BME280;5473;42.706;23.328;2023-02-26T03:36:03;37863.09;;;-142.93;85.36
10840;BME280;5473;42.706;23.328;2023-02-26T03:38:36;37902.88;;;-142.93;85.41
10840;BME280;5473;42.706;23.328;2023-02-26T03:41:06;37883.00;;;-142.93;85.65
10840;BME280;5473;42.706;23.328;2023-02-26T03:43:38;37886.97;;;-142.93;86.10
10840;BME280;5473;42.706;23.328;2023-02-26T03:46:12;37944.69;;;-142.93;86.48
10840;BME280;5473;42.706;23.328;2023-02-26T03:48:42;37890.94;;;-142.93;86.58
10840;BME280;5473;42.706;23.328;2023-02-26T03:51:10;37873.03;;;-142.93;87.17
10840;BME280;5473;42.706;23.328;2023-02-26T03:53:44;37877.00;;;-142.93;87.41
10840;BME280;5473;42.706;23.328;2023-02-26T03:56:16;37910.84;;;-142.93;87.87
10840;BME280;5473;42.706;23.328;2023-02-26T03:58:45;37918.81;;;-142.93;88.09
10840;BME280;5473;42.706;23.328;2023-02-26T04:01:15;37890.94;;;-142.93;89.07
10840;BME280;5473;42.706;23.328;2023-02-26T04:03:48;37932.75;;;-142.93;89.28
10840;BME280;5473;42.706;23.328;2023-02-26T04:06:18;37912.84;;;-142.93;87.85
10840;BME280;5473;42.706;23.328;2023-02-26T04:08:45;37888.97;;;-142.93;86.70
10840;BME280;5473;42.706;23.328;2023-02-26T04:11:14;37910.84;;;-142.93;86.25
10840;BME280;5473;42.706;23.328;2023-02-26T04:13:43;37890.94;;;-142.93;86.03
10840;BME280;5473;42.706;23.328;2023-02-26T04:16:09;37863.09;;;-142.93;86.57
10840;BME280;5473;42.706;23.328;2023-02-26T04:18:36;37898.91;;;-142.93;87.41
10840;BME280;5473;42.706;23.328;2023-02-26T04:21:05;37888.97;;;-142.93;87.53
10840;BME280;5473;42.706;23.328;2023-02-26T04:23:32;37910.84;;;-142.93;87.18
10840;BME280;5473;42.706;23.328;2023-02-26T04:25:58;37888.97;;;-142.93;87.75
10840;BME280;5473;42.706;23.328;2023-02-26T04:28:25;37888.97;;;-142.93;88.68
10840;BME280;5473;42.706;23.328;2023-02-26T04:30:52;37853.13;;;-142.93;89.28
10840;BME280;5473;42.706;23.328;2023-02-26T04:33:18;37890.94;;;-142.93;89.01
10840;BME280;5473;42.706;23.328;2023-02-26T04:35:45;37894.94;;;-142.93;89.61
10840;BME280;5473;42.706;23.328;2023-02-26T04:38:13;37892.94;;;-142.93;89.76
10840;BME280;5473;42.706;23.328;2023-02-26T04:40:40;37888.97;;;-142.93;88.89
10840;BME280;5473;42.706;23.328;2023-02-26T04:43:07;37884.97;;;-142.93;85.10
10840;BME280;5473;42.706;23.328;2023-02-26T04:45:34;37886.97;;;-142.93;86.48
10840;BME280;5473;42.706;23.328;2023-02-26T04:48:01;37863.09;;;-142.93;81.96
10840;BME280;5473;42.706;23.328;2023-02-26T04:50:27;37886.97;;;-142.93;79.83
10840;BME280;5473;42.706;23.328;2023-02-26T04:52:54;37900.91;;;-142.93;79.76
10840;BME280;5473;42.706;23.328;2023-02-26T04:55:22;37894.94;;;-142.93;79.36
10840;BME280;5473;42.706;23.328;2023-02-26T04:57:49;37898.91;;;-142.93;78.62
10840;BME280;5473;42.706;23.328;2023-02-26T05:00:16;37892.94;;;-142.93;81.51
10840;BME280;5473;42.706;23.328;2023-02-26T05:02:44;37886.97;;;-142.93;81.95
10840;BME280;5473;42.706;23.328;2023-02-26T05:05:11;37879.00;;;-142.93;85.25
10840;BME280;5473;42.706;23.328;2023-02-26T05:07:37;37896.91;;;-142.93;84.68
10840;BME280;5473;42.706;23.328;2023-02-26T05:10:05;37894.94;;;-142.93;85.53
10840;BME280;5473;42.706;23.328;2023-02-26T05:12:34;37924.78;;;-142.93;87.05
10840;BME280;5473;42.706;23.328;2023-02-26T05:15:00;37904.88;;;-142.93;85.27
10840;BME280;5473;42.706;23.328;2023-02-26T05:17:27;37910.84;;;-142.93;84.54
10840;BME280;5473;42.706;23.328;2023-02-26T05:19:54;37938.72;;;-142.93;81.33
10840;BME280;5473;42.706;23.328;2023-02-26T05:22:21;37916.81;;;-142.93;75.27
10840;BME280;5473;42.706;23.328;2023-02-26T05:24:47;37892.94;;;-142.93;71.70
10840;BME280;5473;42.706;23.328;2023-02-26T05:27:15;37902.88;;;-142.93;71.72
10840;BME280;5473;42.706;23.328;2023-02-26T05:29:43;37914.81;;;-142.93;70.97
10840;BME280;5473;42.706;23.328;2023-02-26T05:32:11;37914.81;;;-142.93;70.41
10840;BME280;5473;42.706;23.328;2023-02-26T05:34:37;37881.00;;;-142.93;71.49
10840;BME280;5473;42.706;23.328;2023-02-26T05:37:04;37892.94;;;-142.93;70.90
10840;BME280;5473;42.706;23.328;2023-02-26T05:39:31;37859.09;;;-142.93;68.53
10840;BME280;5473;42.706;23.328;2023-02-26T05:41:58;37896.91;;;-142.93;68.08
10840;BME280;5473;42.706;23.328;2023-02-26T05:44:25;37906.88;;;-142.93;68.47
10840;BME280;5473;42.706;23.328;2023-02-26T05:46:53;37900.91;;;-142.93;67.38
10840;BME280;5473;42.706;23.328;2023-02-26T05:49:20;37904.88;;;-142.93;68.04
10840;BME280;5473;42.706;23.328;2023-02-26T05:51:47;37890.94;;;-142.93;69.10
10840;BME280;5473;42.706;23.328;2023-02-26T05:54:13;37918.81;;;-142.93;69.00
10840;BME280;5473;42.706;23.328;2023-02-26T05:56:40;37879.00;;;-142.93;69.57
10840;BME280;5473;42.706;23.328;2023-02-26T05:59:07;37892.94;;;-142.93;69.17
10840;BME280;5473;42.706;23.328;2023-02-26T06:01:34;37857.13;;;-142.93;68.06
10840;BME280;5473;42.706;23.328;2023-02-26T06:04:02;37894.94;;;-142.93;70.36
10840;BME280;5473;42.706;23.328;2023-02-26T06:06:29;37892.94;;;-142.93;71.79
10840;BME280;5473;42.706;23.328;2023-02-26T06:08:56;37890.94;;;-142.93;69.78
10840;BME280;5473;42.706;23.328;2023-02-26T06:11:23;37863.09;;;-142.93;67.89
10840;BME280;5473;42.706;23.328;2023-02-26T06:13:50;37863.09;;;-142.93;67.71
10840;BME280;5473;42.706;23.328;2023-02-26T06:16:16;37883.00;;;-142.93;66.92
10840;BME280;5473;42.706;23.328;2023-02-26T06:18:44;37884.97;;;-142.93;67.76
10840;BME280;5473;42.706;23.328;2023-02-26T06:21:13;37853.13;;;-142.93;67.50
10840;BME280;5473;42.706;23.328;2023-02-26T06:23:39;37883.00;;;-142.93;67.69
10840;BME280;5473;42.706;23.328;2023-02-26T06:26:06;37877.00;;;-142.93;65.29
10840;BME280;5473;42.706;23.328;2023-02-26T06:28:33;37869.06;;;-142.93;65.90
10840;BME280;5473;42.706;23.328;2023-02-26T06:31:00;37881.00;;;-142.93;65.68
10840;BME280;5473;42.706;23.328;2023-02-26T06:33:27;37855.13;;;-142.93;63.97
10840;BME280;5473;42.706;23.328;2023-02-26T06:35:54;37839.22;;;-142.93;62.91
10840;BME280;5473;42.706;23.328;2023-02-26T06:38:23;37845.19;;;-142.93;63.44
10840;BME280;5473;42.706;23.328;2023-02-26T06:40:50;37875.03;;;-142.93;62.57
10840;BME280;5473;42.706;23.328;2023-02-26T06:43:17;37827.25;;;-142.93;62.77
10840;BME280;5473;42.706;23.328;2023-02-26T06:45:44;37849.16;;;-142.93;62.82
10840;BME280;5473;42.706;23.328;2023-02-26T06:48:11;37847.16;;;-142.93;62.36
10840;BME280;5473;42.706;23.328;2023-02-26T06:50:38;37813.34;;;-142.93;62.23
10840;BME280;5473;42.706;23.328;2023-02-26T06:53:04;37827.25;;;-142.93;61.63
10840;BME280;5473;42.706;23.328;2023-02-26T06:55:33;37829.25;;;-142.93;59.16
10840;BME280;5473;42.706;23.328;2023-02-26T06:58:00;37795.44;;;-142.93;57.45
10840;BME280;5473;42.706;23.328;2023-02-26T07:00:27;37801.41;;;-142.93;57.23
10840;BME280;5473;42.706;23.328;2023-02-26T07:02:53;37835.22;;;-142.93;55.21
10840;BME280;5473;42.706;23.328;2023-02-26T07:05:20;37813.34;;;-142.93;55.15
10840;BME280;5473;42.706;23.328;2023-02-26T07:07:47;37785.47;;;-142.93;54.36
10840;BME280;5473;42.706;23.328;2023-02-26T07:10:13;37795.44;;;-142.93;53.94
10840;BME280;5473;42.706;23.328;2023-02-26T07:12:41;37729.75;;;-142.93;53.53
10840;BME280;5473;42.706;23.328;2023-02-26T07:15:09;37771.53;;;-142.93;55.33
10840;BME280;5473;42.706;23.328;2023-02-26T07:17:36;37739.72;;;-142.93;58.27
10840;BME280;5473;42.706;23.328;2023-02-26T07:20:03;37801.41;;;-142.93;60.13
10840;BME280;5473;42.706;23.328;2023-02-26T07:22:35;37807.38;;;-142.93;60.30
10840;BME280;5473;42.706;23.328;2023-02-26T07:25:03;37765.56;;;-142.93;59.87
10840;BME280;5473;42.706;23.328;2023-02-26T07:27:30;37787.47;;;-142.93;60.00
10840;BME280;5473;42.706;23.328;2023-02-26T07:29:59;37787.47;;;-142.93;58.80
10840;BME280;5473;42.706;23.328;2023-02-26T07:32:26;37779.50;;;-142.93;59.14
10840;BME280;5473;42.706;23.328;2023-02-26T07:34:52;37801.41;;;-142.93;56.53
10840;BME280;5473;42.706;23.328;2023-02-26T07:37:19;37781.50;;;-142.93;57.83
10840;BME280;5473;42.706;23.328;2023-02-26T07:39:46;37723.78;;;-142.93;57.19
10840;BME280;5473;42.706;23.328;2023-02-26T07:42:13;37731.75;;;-142.93;55.98
10840;BME280;5473;42.706;23.328;2023-02-26T07:44:39;37767.56;;;-142.93;52.34
10840;BME280;5473;42.706;23.328;2023-02-26T07:47:08;37731.75;;;-142.93;51.76
10840;BME280;5473;42.706;23.328;2023-02-26T07:49:35;37695.94;;;-142.93;50.95
10840;BME280;5473;42.706;23.328;2023-02-26T07:52:02;37719.81;;;-142.93;50.81
10840;BME280;5473;42.706;23.328;2023-02-26T07:54:29;37739.72;;;-142.93;51.06
10840;BME280;5473;42.706;23.328;2023-02-26T07:56:56;37773.53;;;-142.93;50.70
10840;BME280;5473;42.706;23.328;2023-02-26T07:59:23;37725.78;;;-142.93;50.15
10840;BME280;5473;42.706;23.328;2023-02-26T08:01:50;37801.41;;;-142.93;50.74
10840;BME280;5473;42.706;23.328;2023-02-26T08:04:18;37819.31;;;-142.93;49.67
10840;BME280;5473;42.706;23.328;2023-02-26T08:06:44;37809.34;;;-142.93;49.33
10840;BME280;5473;42.706;23.328;2023-02-26T08:09:11;37781.50;;;-142.93;49.57
10840;BME280;5473;42.706;23.328;2023-02-26T08:11:38;37727.75;;;-142.93;48.63
10840;BME280;5473;42.706;23.328;2023-02-26T08:14:07;37777.50;;;-142.93;48.88
10840;BME280;5473;42.706;23.328;2023-02-26T08:16:34;37883.00;;;-142.93;48.00
10840;BME280;5473;42.706;23.328;2023-02-26T08:19:01;37719.81;;;-142.93;48.23
10840;BME280;5473;42.706;23.328;2023-02-26T08:21:29;37729.75;;;-142.93;48.18
10840;BME280;5473;42.706;23.328;2023-02-26T08:23:56;37689.97;;;-142.93;48.11
10840;BME280;5473;42.706;23.328;2023-02-26T08:26:23;37656.13;;;-142.93;47.62
10840;BME280;5473;42.706;23.328;2023-02-26T08:28:49;37741.69;;;-142.93;47.14
10840;BME280;5473;42.706;23.328;2023-02-26T08:31:16;37783.50;;;-142.93;47.82
10840;BME280;5473;42.706;23.328;2023-02-26T08:33:43;37717.81;;;-142.93;47.90
10840;BME280;5473;42.706;23.328;2023-02-26T08:36:10;37658.13;;;-142.93;46.67
10840;BME280;5473;42.706;23.328;2023-02-26T08:38:39;37668.06;;;-142.93;47.58
10840;BME280;5473;42.706;23.328;2023-02-26T08:41:05;37658.13;;;-142.93;47.40
10840;BME280;5473;42.706;23.328;2023-02-26T08:43:32;37747.66;;;-142.93;47.55
10840;BME280;5473;42.706;23.328;2023-02-26T08:45:59;37747.66;;;-142.93;47.19
10840;BME280;5473;42.706;23.328;2023-02-26T08:48:26;37654.13;;;-142.93;45.83
10840;BME280;5473;42.706;23.328;2023-02-26T08:50:53;37685.97;;;-142.93;46.69
10840;BME280;5473;42.706;23.328;2023-02-26T08:53:20;37739.72;;;-142.93;47.41
10840;BME280;5473;42.706;23.328;2023-02-26T08:55:49;37735.72;;;-142.93;48.28
10840;BME280;5473;42.706;23.328;2023-02-26T08:58:16;37701.91;;;-142.93;48.14
10840;BME280;5473;42.706;23.328;2023-02-26T09:00:43;37652.16;;;-142.93;47.26
10840;BME280;5473;42.706;23.328;2023-02-26T09:03:10;37699.91;;;-142.93;48.44
10840;BME280;5473;42.706;23.328;2023-02-26T09:05:37;37695.94;;;-142.93;45.82
10840;BME280;5473;42.706;23.328;2023-02-26T09:08:05;37703.88;;;-142.93;46.42
10840;BME280;5473;42.706;23.328;2023-02-26T09:10:32;37660.09;;;-142.93;45.76
10840;BME280;5473;42.706;23.328;2023-02-26T09:13:00;37680.00;;;-142.93;44.63
10840;BME280;5473;42.706;23.328;2023-02-26T09:15:27;37586.47;;;-142.93;44.50
10840;BME280;5473;42.706;23.328;2023-02-26T09:17:54;37684.00;;;-142.93;44.66
10840;BME280;5473;42.706;23.328;2023-02-26T09:20:20;37672.03;;;-142.93;44.04
10840;BME280;5473;42.706;23.328;2023-02-26T09:22:47;37604.38;;;-142.93;43.12
10840;BME280;5473;42.706;23.328;2023-02-26T09:25:14;37580.50;;;-142.93;43.85
10840;BME280;5473;42.706;23.328;2023-02-26T09:27:41;37532.75;;;-142.93;43.01
10840;BME280;5473;42.706;23.328;2023-02-26T09:30:11;37512.84;;;-142.93;38.90
10840;BME280;5473;42.706;23.328;2023-02-26T09:32:38;37405.41;;;-142.93;38.42
10840;BME280;5473;42.706;23.328;2023-02-26T09:35:05;37347.72;;;-142.93;37.61
10840;BME280;5473;42.706;23.328;2023-02-26T09:37:32;37437.25;;;-142.93;37.71
10840;BME280;5473;42.706;23.328;2023-02-26T09:39:58;37345.72;;;-142.93;37.46
10840;BME280;5473;42.706;23.328;2023-02-26T09:42:36;37345.72;;;-142.93;36.50
10840;BME280;5473;42.706;23.328;2023-02-26T09:45:14;37473.06;;;-142.93;37.05
10840;BME280;5473;42.706;23.328;2023-02-26T09:47:47;37317.84;;;-142.93;36.39
10840;BME280;5473;42.706;23.328;2023-02-26T09:50:19;37270.09;;;-142.93;36.32
10840;BME280;5473;42.706;23.328;2023-02-26T09:52:51;37309.91;;;-142.93;36.51
10840;BME280;5473;42.706;23.328;2023-02-26T09:55:26;37009.47;;;-142.93;34.48
10840;BME280;5473;42.706;23.328;2023-02-26T09:57:56;36967.69;;;-142.93;33.13
10840;BME280;5473;42.706;23.328;2023-02-26T10:00:31;36896.06;;;-142.93;32.65
10840;BME280;5473;42.706;23.328;2023-02-26T10:03:08;36721.00;;;-142.93;32.29
10840;BME280;5473;42.706;23.328;2023-02-26T10:05:47;36806.53;;;-142.93;32.00
10840;BME280;5473;42.706;23.328;2023-02-26T10:08:20;37140.78;;;-142.93;34.45
10840;BME280;5473;42.706;23.328;2023-02-26T10:10:59;37188.53;;;-142.93;35.34
10840;BME280;5473;42.706;23.328;2023-02-26T10:13:33;37045.28;;;-142.93;34.77
10840;BME280;5473;42.706;23.328;2023-02-26T10:16:08;37429.28;;;-142.93;38.72
10840;BME280;5473;42.706;23.328;2023-02-26T10:18:41;37268.13;;;-142.93;37.07
10840;BME280;5473;42.706;23.328;2023-02-26T10:21:13;37461.13;;;-142.93;38.87
10840;BME280;5473;42.706;23.328;2023-02-26T10:23:43;37496.94;;;-142.93;39.90
10840;BME280;5473;42.706;23.328;2023-02-26T10:26:17;37453.16;;;-142.93;39.16
10840;BME280;5473;42.706;23.328;2023-02-26T10:28:53;37431.28;;;-142.93;39.39
10840;BME280;5473;42.706;23.328;2023-02-26T10:31:28;37345.72;;;-142.93;37.77
10840;BME280;5473;42.706;23.328;2023-02-26T10:34:08;37530.75;;;-142.93;39.98
10840;BME280;5473;42.706;23.328;2023-02-26T10:36:41;37469.09;;;-142.93;39.38
10840;BME280;5473;42.706;23.328;2023-02-26T10:39:18;37405.41;;;-142.93;37.96
10840;BME280;5473;42.706;23.328;2023-02-26T10:41:47;37202.47;;;-142.93;37.05
10840;BME280;5473;42.706;23.328;2023-02-26T10:44:19;37025.38;;;-142.93;35.49
10840;BME280;5473;42.706;23.328;2023-02-26T10:46:52;36856.28;;;-142.93;34.95
10840;BME280;5473;42.706;23.328;2023-02-26T10:49:34;36892.09;;;-142.93;34.68
10840;BME280;5473;42.706;23.328;2023-02-26T10:52:13;37049.25;;;-142.93;35.59
10840;BME280;5473;42.706;23.328;2023-02-26T10:54:47;37114.91;;;-142.93;35.90
10840;BME280;5473;42.706;23.328;2023-02-26T10:57:19;37170.63;;;-142.93;36.82
10840;BME280;5473;42.706;23.328;2023-02-26T10:59:48;37174.59;;;-142.93;36.91
10840;BME280;5473;42.706;23.328;2023-02-26T11:02:33;37337.75;;;-142.93;37.84
10840;BME280;5473;42.706;23.328;2023-02-26T11:05:01;37311.88;;;-142.93;38.69
10840;BME280;5473;42.706;23.328;2023-02-26T11:07:30;37337.75;;;-142.93;40.42
10840;BME280;5473;42.706;23.328;2023-02-26T11:09:58;37437.25;;;-142.93;39.30
10840;BME280;5473;42.706;23.328;2023-02-26T11:12:25;37419.34;;;-142.93;39.68
10840;BME280;5473;42.706;23.328;2023-02-26T11:14:53;37389.50;;;-142.93;38.73
10840;BME280;5473;42.706;23.328;2023-02-26T11:17:23;37425.31;;;-142.93;38.73
10840;BME280;5473;42.706;23.328;2023-02-26T11:19:55;37483.00;;;-142.93;40.70
10840;BME280;5473;42.706;23.328;2023-02-26T11:22:24;37508.88;;;-142.93;40.10
10840;BME280;5473;42.706;23.328;2023-02-26T11:24:51;37485.00;;;-142.93;39.99
10840;BME280;5473;42.706;23.328;2023-02-26T11:27:23;37590.47;;;-142.93;41.95
10840;BME280;5473;42.706;23.328;2023-02-26T11:29:53;37540.72;;;-142.93;42.47
10840;BME280;5473;42.706;23.328;2023-02-26T11:32:28;37652.16;;;-142.93;44.57
10840;BME280;5473;42.706;23.328;2023-02-26T11:34:55;37725.78;;;-142.93;47.94
10840;BME280;5473;42.706;23.328;2023-02-26T11:37:24;37715.81;;;-142.93;48.94
10840;BME280;5473;42.706;23.328;2023-02-26T11:39:55;37707.88;;;-142.93;47.98
10840;BME280;5473;42.706;23.328;2023-02-26T11:42:23;37707.88;;;-142.93;48.01
10840;BME280;5473;42.706;23.328;2023-02-26T11:44:51;37731.75;;;-142.93;48.11
10840;BME280;5473;42.706;23.328;2023-02-26T11:47:25;37648.16;;;-142.93;47.82
10840;BME280;5473;42.706;23.328;2023-02-26T11:49:59;37678.03;;;-142.93;48.90
10840;BME280;5473;42.706;23.328;2023-02-26T11:52:32;37642.19;;;-142.93;48.35
10840;BME280;5473;42.706;23.328;2023-02-26T11:55:01;37658.13;;;-142.93;48.59
10840;BME280;5473;42.706;23.328;2023-02-26T11:57:30;37703.88;;;-142.93;48.12
10840;BME280;5473;42.706;23.328;2023-02-26T11:59:59;37682.00;;;-142.93;47.88
10840;BME280;5473;42.706;23.328;2023-02-26T12:02:31;37721.78;;;-142.93;49.11
10840;BME280;5473;42.706;23.328;2023-02-26T12:05:03;37674.03;;;-142.93;49.40
10840;BME280;5473;42.706;23.328;2023-02-26T12:07:31;37654.13;;;-142.93;48.51
10840;BME280;5473;42.706;23.328;2023-02-26T12:09:58;37640.22;;;-142.93;50.35
10840;BME280;5473;42.706;23.328;2023-02-26T12:12:43;37691.94;;;-142.93;50.43
10840;BME280;5473;42.706;23.328;2023-02-26T12:15:31;37664.09;;;-142.93;48.70
10840;BME280;5473;42.706;23.328;2023-02-26T12:21:21;37654.13;;;-142.93;50.25
10840;BME280;5473;42.706;23.328;2023-02-26T12:26:52;37648.16;;;-142.93;52.15
10840;BME280;5473;42.706;23.328;2023-02-26T12:29:32;37662.09;;;-142.93;52.55
10840;BME280;5473;42.706;23.328;2023-02-26T12:32:26;37699.91;;;-142.93;51.84
10840;BME280;5473;42.706;23.328;2023-02-26T12:35:14;37642.19;;;-142.93;52.55
10840;BME280;5473;42.706;23.328;2023-02-26T12:37:58;37680.00;;;-142.93;53.85
10840;BME280;5473;42.706;23.328;2023-02-26T12:43:29;37632.25;;;-142.93;55.66
10840;BME280;5473;42.706;23.328;2023-02-26T12:46:05;37574.53;;;-142.93;56.94
10840;BME280;5473;42.706;23.328;2023-02-26T12:52:00;37532.75;;;-142.93;57.76
10840;BME280;5473;42.706;23.328;2023-02-26T12:54:44;37584.50;;;-142.93;58.78
10840;BME280;5473;42.706;23.328;2023-02-26T12:57:25;37620.31;;;-142.93;60.31
10840;BME280;5473;42.706;23.328;2023-02-26T13:00:17;37638.22;;;-142.93;58.50
10840;BME280;5473;42.706;23.328;2023-02-26T13:09:11;37676.03;;;-142.93;58.80
10840;BME280;5473;42.706;23.328;2023-02-26T13:11:49;37693.94;;;-142.93;58.96
10840;BME280;5473;42.706;23.328;2023-02-26T13:14:34;37685.97;;;-142.93;60.57
10840;BME280;5473;42.706;23.328;2023-02-26T13:17:08;37693.94;;;-142.93;61.03
10840;BME280;5473;42.706;23.328;2023-02-26T13:19:41;37685.97;;;-142.93;62.52